sensor_id;sensor_type;location;lat;lon;timestamp;temperature;humidity
43987;DHT22;29650;47.378;8.300;2023-07-08T00:02:11;22.70;56.70
43987;DHT22;29650;47.378;8.300;2023-07-08T00:04:39;22.50;52.80
43987;DHT22;29650;47.378;8.300;2023-07-08T00:07:08;21.80;57.90
43987;DHT22;29650;47.378;8.300;2023-07-08T00:09:37;22.00;56.60
43987;DHT22;29650;47.378;8.300;2023-07-08T00:12:09;22.30;55.20
43987;DHT22;29650;47.378;8.300;2023-07-08T00:14:36;21.90;59.80
43987;DHT22;29650;47.378;8.300;2023-07-08T00:17:10;21.40;65.70
43987;DHT22;29650;47.378;8.300;2023-07-08T00:19:37;21.20;76.20
43987;DHT22;29650;47.378;8.300;2023-07-08T00:22:10;21.70;72.70
43987;DHT22;29650;47.378;8.300;2023-07-08T00:24:39;21.40;70.90
43987;DHT22;29650;47.378;8.300;2023-07-08T00:27:10;21.40;73.30
43987;DHT22;29650;47.378;8.300;2023-07-08T00:29:38;21.70;72.40
43987;DHT22;29650;47.378;8.300;2023-07-08T00:32:11;21.50;85.70
43987;DHT22;29650;47.378;8.300;2023-07-08T00:34:39;21.50;91.80
43987;DHT22;29650;47.378;8.300;2023-07-08T00:37:09;21.60;90.70
43987;DHT22;29650;47.378;8.300;2023-07-08T00:39:37;21.40;95.80
43987;DHT22;29650;47.378;8.300;2023-07-08T00:42:13;21.40;96.60
43987;DHT22;29650;47.378;8.300;2023-07-08T00:44:41;21.40;99.90
43987;DHT22;29650;47.378;8.300;2023-07-08T00:47:11;21.40;99.90
43987;DHT22;29650;47.378;8.300;2023-07-08T00:49:41;21.30;99.70
43987;DHT22;29650;47.378;8.300;2023-07-08T00:52:24;21.10;99.90
43987;DHT22;29650;47.378;8.300;2023-07-08T00:54:53;21.00;99.90
43987;DHT22;29650;47.378;8.300;2023-07-08T00:57:23;20.80;99.90
43987;DHT22;29650;47.378;8.300;2023-07-08T00:59:57;20.50;99.90
43987;DHT22;29650;47.378;8.300;2023-07-08T01:02:28;20.50;97.80
43987;DHT22;29650;47.378;8.300;2023-07-08T01:04:58;20.50;97.10
43987;DHT22;29650;47.378;8.300;2023-07-08T01:07:29;20.80;97.30
43987;DHT22;29650;47.378;8.300;2023-07-08T01:10:02;20.70;99.90
43987;DHT22;29650;47.378;8.300;2023-07-08T01:12:35;20.80;99.90
43987;DHT22;29650;47.378;8.300;2023-07-08T01:15:05;21.10;99.90
43987;DHT22;29650;47.378;8.300;2023-07-08T01:17:33;21.00;99.90
43987;DHT22;29650;47.378;8.300;2023-07-08T01:20:01;20.80;99.90
43987;DHT22;29650;47.378;8.300;2023-07-08T01:22:34;20.80;99.90
43987;DHT22;29650;47.378;8.300;2023-07-08T01:25:02;21.00;99.90
43987;DHT22;29650;47.378;8.300;2023-07-08T01:27:32;21.10;99.90
43987;DHT22;29650;47.378;8.300;2023-07-08T01:30:02;21.20;99.90
43987;DHT22;29650;47.378;8.300;2023-07-08T01:32:29;21.00;99.90
43987;DHT22;29650;47.378;8.300;2023-07-08T01:35:00;21.10;99.90
43987;DHT22;29650;47.378;8.300;2023-07-08T01:37:37;20.60;99.90
43987;DHT22;29650;47.378;8.300;2023-07-08T01:40:27;20.40;99.90
43987;DHT22;29650;47.378;8.300;2023-07-08T01:42:55;20.60;99.90
43987;DHT22;29650;47.378;8.300;2023-07-08T01:45:25;20.50;99.90
43987;DHT22;29650;47.378;8.300;2023-07-08T01:47:53;20.50;99.90
43987;DHT22;29650;47.378;8.300;2023-07-08T01:50:22;20.40;99.90
43987;DHT22;29650;47.378;8.300;2023-07-08T01:52:52;20.40;99.90
43987;DHT22;29650;47.378;8.300;2023-07-08T01:55:23;20.40;99.90
43987;DHT22;29650;47.378;8.300;2023-07-08T01:57:51;20.40;99.90
43987;DHT22;29650;47.378;8.300;2023-07-08T02:00:20;19.80;99.90
43987;DHT22;29650;47.378;8.300;2023-07-08T02:02:48;20.00;99.90
43987;DHT22;29650;47.378;8.300;2023-07-08T02:05:15;19.90;99.90
43987;DHT22;29650;47.378;8.300;2023-07-08T02:07:42;20.00;99.90
43987;DHT22;29650;47.378;8.300;2023-07-08T02:10:10;20.20;99.90
43987;DHT22;29650;47.378;8.300;2023-07-08T02:12:38;20.40;99.90
43987;DHT22;29650;47.378;8.300;2023-07-08T02:15:06;20.40;99.90
43987;DHT22;29650;47.378;8.300;2023-07-08T02:17:33;20.60;99.90
43987;DHT22;29650;47.378;8.300;2023-07-08T02:20:00;20.70;99.90
43987;DHT22;29650;47.378;8.300;2023-07-08T02:22:28;20.50;99.90
43987;DHT22;29650;47.378;8.300;2023-07-08T02:24:55;20.60;99.90
43987;DHT22;29650;47.378;8.300;2023-07-08T02:27:23;20.70;99.90
43987;DHT22;29650;47.378;8.300;2023-07-08T02:29:50;21.00;99.90
43987;DHT22;29650;47.378;8.300;2023-07-08T02:32:17;20.90;99.90
43987;DHT22;29650;47.378;8.300;2023-07-08T02:34:44;21.00;99.90
43987;DHT22;29650;47.378;8.300;2023-07-08T02:37:11;20.60;99.90
43987;DHT22;29650;47.378;8.300;2023-07-08T02:39:38;20.30;99.90
43987;DHT22;29650;47.378;8.300;2023-07-08T02:42:05;19.90;99.90
43987;DHT22;29650;47.378;8.300;2023-07-08T02:44:34;20.10;99.90
43987;DHT22;29650;47.378;8.300;2023-07-08T02:47:00;20.40;99.90
43987;DHT22;29650;47.378;8.300;2023-07-08T02:49:28;20.60;99.90
43987;DHT22;29650;47.378;8.300;2023-07-08T02:51:55;20.40;99.90
43987;DHT22;29650;47.378;8.300;2023-07-08T02:54:22;20.40;99.90
43987;DHT22;29650;47.378;8.300;2023-07-08T02:56:49;20.50;99.90
43987;DHT22;29650;47.378;8.300;2023-07-08T02:59:15;20.50;99.90
43987;DHT22;29650;47.378;8.300;2023-07-08T03:01:44;20.60;99.90
43987;DHT22;29650;47.378;8.300;2023-07-08T03:04:12;20.60;99.90
43987;DHT22;29650;47.378;8.300;2023-07-08T03:06:40;20.60;99.90
43987;DHT22;29650;47.378;8.300;2023-07-08T03:09:07;20.40;99.90
43987;DHT22;29650;47.378;8.300;2023-07-08T03:11:34;20.40;99.90
43987;DHT22;29650;47.378;8.300;2023-07-08T03:14:02;20.00;99.90
43987;DHT22;29650;47.378;8.300;2023-07-08T03:16:29;19.70;99.90
43987;DHT22;29650;47.378;8.300;2023-07-08T03:18:57;20.00;99.90
43987;DHT22;29650;47.378;8.300;2023-07-08T03:21:24;20.10;99.90
43987;DHT22;29650;47.378;8.300;2023-07-08T03:23:52;20.10;99.90
43987;DHT22;29650;47.378;8.300;2023-07-08T03:26:20;20.30;99.90
43987;DHT22;29650;47.378;8.300;2023-07-08T03:28:48;20.30;99.90
43987;DHT22;29650;47.378;8.300;2023-07-08T03:31:15;20.60;99.90
43987;DHT22;29650;47.378;8.300;2023-07-08T03:33:43;20.60;99.90
43987;DHT22;29650;47.378;8.300;2023-07-08T03:36:13;20.30;99.90
43987;DHT22;29650;47.378;8.300;2023-07-08T03:38:48;20.10;99.90
43987;DHT22;29650;47.378;8.300;2023-07-08T03:41:16;20.00;99.90
43987;DHT22;29650;47.378;8.300;2023-07-08T03:43:43;20.20;99.90
43987;DHT22;29650;47.378;8.300;2023-07-08T03:46:10;20.10;99.90
43987;DHT22;29650;47.378;8.300;2023-07-08T03:48:38;20.10;99.90
43987;DHT22;29650;47.378;8.300;2023-07-08T03:51:08;20.00;99.90
43987;DHT22;29650;47.378;8.300;2023-07-08T03:53:37;20.20;99.90
43987;DHT22;29650;47.378;8.300;2023-07-08T03:56:04;20.40;99.90
43987;DHT22;29650;47.378;8.300;2023-07-08T03:58:32;20.40;99.90
43987;DHT22;29650;47.378;8.300;2023-07-08T04:00:59;20.00;99.90
43987;DHT22;29650;47.378;8.300;2023-07-08T04:03:26;19.80;99.90
43987;DHT22;29650;47.378;8.300;2023-07-08T04:05:52;19.60;99.90
43987;DHT22;29650;47.378;8.300;2023-07-08T04:08:19;19.40;99.90
43987;DHT22;29650;47.378;8.300;2023-07-08T04:10:48;19.40;99.90
43987;DHT22;29650;47.378;8.300;2023-07-08T04:13:15;19.30;99.90
43987;DHT22;29650;47.378;8.300;2023-07-08T04:15:42;19.10;99.90
43987;DHT22;29650;47.378;8.300;2023-07-08T04:18:09;19.30;99.90
43987;DHT22;29650;47.378;8.300;2023-07-08T04:20:35;19.50;99.90
43987;DHT22;29650;47.378;8.300;2023-07-08T04:23:02;19.60;99.90
43987;DHT22;29650;47.378;8.300;2023-07-08T04:25:29;19.70;99.90
43987;DHT22;29650;47.378;8.300;2023-07-08T04:27:58;19.70;99.90
43987;DHT22;29650;47.378;8.300;2023-07-08T04:30:25;19.70;99.90
43987;DHT22;29650;47.378;8.300;2023-07-08T04:32:53;19.60;99.90
43987;DHT22;29650;47.378;8.300;2023-07-08T04:35:21;19.70;99.90
43987;DHT22;29650;47.378;8.300;2023-07-08T04:37:48;19.40;99.90
43987;DHT22;29650;47.378;8.300;2023-07-08T04:40:18;19.30;99.90
43987;DHT22;29650;47.378;8.300;2023-07-08T04:42:46;19.20;99.90
43987;DHT22;29650;47.378;8.300;2023-07-08T04:45:17;19.40;99.90
43987;DHT22;29650;47.378;8.300;2023-07-08T04:47:44;19.50;99.90
43987;DHT22;29650;47.378;8.300;2023-07-08T04:50:12;19.20;99.90
43987;DHT22;29650;47.378;8.300;2023-07-08T04:52:39;19.40;99.90
43987;DHT22;29650;47.378;8.300;2023-07-08T04:55:07;19.60;99.90
43987;DHT22;29650;47.378;8.300;2023-07-08T04:57:35;19.60;99.90
43987;DHT22;29650;47.378;8.300;2023-07-08T05:00:05;20.00;99.90
43987;DHT22;29650;47.378;8.300;2023-07-08T05:02:37;21.20;99.90
43987;DHT22;29650;47.378;8.300;2023-07-08T05:05:04;19.60;99.90
43987;DHT22;29650;47.378;8.300;2023-07-08T05:07:31;19.60;99.90
43987;DHT22;29650;47.378;8.300;2023-07-08T05:09:58;19.80;99.90
43987;DHT22;29650;47.378;8.300;2023-07-08T05:12:26;20.00;99.90
43987;DHT22;29650;47.378;8.300;2023-07-08T05:14:53;19.70;99.90
43987;DHT22;29650;47.378;8.300;2023-07-08T05:17:20;19.40;99.90
43987;DHT22;29650;47.378;8.300;2023-07-08T05:19:48;19.40;99.90
43987;DHT22;29650;47.378;8.300;2023-07-08T05:24:50;19.10;99.90
43987;DHT22;29650;47.378;8.300;2023-07-08T05:27:18;19.50;99.90
43987;DHT22;29650;47.378;8.300;2023-07-08T05:29:46;19.60;99.90
43987;DHT22;29650;47.378;8.300;2023-07-08T05:32:13;19.60;99.90
43987;DHT22;29650;47.378;8.300;2023-07-08T05:37:09;19.60;99.90
43987;DHT22;29650;47.378;8.300;2023-07-08T05:39:36;19.70;99.90
43987;DHT22;29650;47.378;8.300;2023-07-08T05:42:03;19.50;99.90
43987;DHT22;29650;47.378;8.300;2023-07-08T05:44:31;19.50;99.90
43987;DHT22;29650;47.378;8.300;2023-07-08T05:46:58;19.50;99.90
43987;DHT22;29650;47.378;8.300;2023-07-08T05:49:24;19.50;99.90
43987;DHT22;29650;47.378;8.300;2023-07-08T05:51:51;19.50;99.90
43987;DHT22;29650;47.378;8.300;2023-07-08T05:54:20;19.50;99.90
43987;DHT22;29650;47.378;8.300;2023-07-08T05:56:47;19.60;99.90
43987;DHT22;29650;47.378;8.300;2023-07-08T05:59:14;19.70;99.90
43987;DHT22;29650;47.378;8.300;2023-07-08T06:01:41;19.60;99.90
43987;DHT22;29650;47.378;8.300;2023-07-08T06:04:08;19.70;99.90
43987;DHT22;29650;47.378;8.300;2023-07-08T06:06:35;19.70;99.90
43987;DHT22;29650;47.378;8.300;2023-07-08T06:09:02;19.70;99.90
43987;DHT22;29650;47.378;8.300;2023-07-08T06:11:31;19.60;99.90
43987;DHT22;29650;47.378;8.300;2023-07-08T06:13:58;19.60;99.90
43987;DHT22;29650;47.378;8.300;2023-07-08T06:16:25;19.70;99.90
43987;DHT22;29650;47.378;8.300;2023-07-08T06:18:52;19.90;99.90
43987;DHT22;29650;47.378;8.300;2023-07-08T06:21:19;19.80;99.90
43987;DHT22;29650;47.378;8.300;2023-07-08T06:23:46;19.80;99.90
43987;DHT22;29650;47.378;8.300;2023-07-08T06:26:13;19.80;99.90
43987;DHT22;29650;47.378;8.300;2023-07-08T06:28:41;19.60;99.90
43987;DHT22;29650;47.378;8.300;2023-07-08T06:33:36;19.70;99.90
43987;DHT22;29650;47.378;8.300;2023-07-08T06:36:03;19.40;99.90
43987;DHT22;29650;47.378;8.300;2023-07-08T06:38:30;19.50;99.90
43987;DHT22;29650;47.378;8.300;2023-07-08T06:40:57;19.60;99.90
43987;DHT22;29650;47.378;8.300;2023-07-08T06:43:24;19.60;99.90
43987;DHT22;29650;47.378;8.300;2023-07-08T06:45:52;19.70;99.90
43987;DHT22;29650;47.378;8.300;2023-07-08T06:48:19;19.90;99.90
43987;DHT22;29650;47.378;8.300;2023-07-08T06:50:48;19.70;99.90
43987;DHT22;29650;47.378;8.300;2023-07-08T06:53:15;19.80;99.90
43987;DHT22;29650;47.378;8.300;2023-07-08T06:55:44;19.90;99.90
43987;DHT22;29650;47.378;8.300;2023-07-08T06:58:11;20.00;99.90
43987;DHT22;29650;47.378;8.300;2023-07-08T07:00:41;19.80;99.90
43987;DHT22;29650;47.378;8.300;2023-07-08T07:03:10;19.80;99.90
43987;DHT22;29650;47.378;8.300;2023-07-08T07:05:37;19.70;99.90
43987;DHT22;29650;47.378;8.300;2023-07-08T07:08:05;19.90;99.90
43987;DHT22;29650;47.378;8.300;2023-07-08T07:10:32;19.90;99.90
43987;DHT22;29650;47.378;8.300;2023-07-08T07:12:59;19.90;99.90
43987;DHT22;29650;47.378;8.300;2023-07-08T07:15:26;19.90;99.90
43987;DHT22;29650;47.378;8.300;2023-07-08T07:17:55;19.90;99.90
43987;DHT22;29650;47.378;8.300;2023-07-08T07:20:24;19.70;99.90
43987;DHT22;29650;47.378;8.300;2023-07-08T07:22:51;19.80;99.90
43987;DHT22;29650;47.378;8.300;2023-07-08T07:25:18;20.00;99.90
43987;DHT22;29650;47.378;8.300;2023-07-08T07:27:45;19.80;99.90
43987;DHT22;29650;47.378;8.300;2023-07-08T07:30:12;19.80;99.90
43987;DHT22;29650;47.378;8.300;2023-07-08T07:32:41;19.70;99.90
43987;DHT22;29650;47.378;8.300;2023-07-08T07:35:08;19.70;99.90
43987;DHT22;29650;47.378;8.300;2023-07-08T07:37:40;19.60;99.90
43987;DHT22;29650;47.378;8.300;2023-07-08T07:40:08;19.90;99.90
43987;DHT22;29650;47.378;8.300;2023-07-08T07:42:38;20.00;99.90
43987;DHT22;29650;47.378;8.300;2023-07-08T07:45:06;20.00;99.90
43987;DHT22;29650;47.378;8.300;2023-07-08T07:47:33;20.00;99.90
43987;DHT22;29650;47.378;8.300;2023-07-08T07:50:00;20.10;99.90
43987;DHT22;29650;47.378;8.300;2023-07-08T07:52:27;20.20;99.90
43987;DHT22;29650;47.378;8.300;2023-07-08T07:54:56;20.20;99.90
43987;DHT22;29650;47.378;8.300;2023-07-08T07:57:23;20.20;99.90
43987;DHT22;29650;47.378;8.300;2023-07-08T07:59:50;20.30;99.90
43987;DHT22;29650;47.378;8.300;2023-07-08T08:04:44;20.60;99.90
43987;DHT22;29650;47.378;8.300;2023-07-08T08:07:11;20.70;99.90
43987;DHT22;29650;47.378;8.300;2023-07-08T08:09:38;20.80;99.90
43987;DHT22;29650;47.378;8.300;2023-07-08T08:12:08;20.70;99.90
43987;DHT22;29650;47.378;8.300;2023-07-08T08:14:36;21.00;99.90
43987;DHT22;29650;47.378;8.300;2023-07-08T08:17:03;21.10;99.90
43987;DHT22;29650;47.378;8.300;2023-07-08T08:19:30;21.10;99.90
43987;DHT22;29650;47.378;8.300;2023-07-08T08:21:58;21.20;99.90
43987;DHT22;29650;47.378;8.300;2023-07-08T08:24:25;21.40;99.90
43987;DHT22;29650;47.378;8.300;2023-07-08T08:26:52;21.70;99.90
43987;DHT22;29650;47.378;8.300;2023-07-08T08:29:20;21.70;99.90
43987;DHT22;29650;47.378;8.300;2023-07-08T08:31:47;21.80;99.90
43987;DHT22;29650;47.378;8.300;2023-07-08T08:34:14;21.40;99.90
43987;DHT22;29650;47.378;8.300;2023-07-08T08:36:41;21.40;99.90
43987;DHT22;29650;47.378;8.300;2023-07-08T08:39:08;21.70;99.90
43987;DHT22;29650;47.378;8.300;2023-07-08T08:41:37;21.80;99.90
43987;DHT22;29650;47.378;8.300;2023-07-08T08:44:06;21.30;99.90
43987;DHT22;29650;47.378;8.300;2023-07-08T08:46:41;21.40;99.90
43987;DHT22;29650;47.378;8.300;2023-07-08T08:49:21;21.80;99.90
43987;DHT22;29650;47.378;8.300;2023-07-08T08:51:51;21.80;99.90
43987;DHT22;29650;47.378;8.300;2023-07-08T08:54:18;21.80;99.90
43987;DHT22;29650;47.378;8.300;2023-07-08T08:56:51;22.00;99.90
43987;DHT22;29650;47.378;8.300;2023-07-08T08:59:28;22.10;99.90
43987;DHT22;29650;47.378;8.300;2023-07-08T09:02:00;22.20;99.90
43987;DHT22;29650;47.378;8.300;2023-07-08T09:04:31;22.00;99.90
43987;DHT22;29650;47.378;8.300;2023-07-08T09:07:05;22.20;99.90
43987;DHT22;29650;47.378;8.300;2023-07-08T09:09:37;22.20;99.90
43987;DHT22;29650;47.378;8.300;2023-07-08T09:12:11;22.20;99.90
43987;DHT22;29650;47.378;8.300;2023-07-08T09:14:40;22.40;99.90
43987;DHT22;29650;47.378;8.300;2023-07-08T09:17:16;22.50;99.90
43987;DHT22;29650;47.378;8.300;2023-07-08T09:19:47;22.50;99.90
43987;DHT22;29650;47.378;8.300;2023-07-08T09:22:17;22.40;99.90
43987;DHT22;29650;47.378;8.300;2023-07-08T09:24:49;22.30;99.90
43987;DHT22;29650;47.378;8.300;2023-07-08T09:27:17;22.30;99.90
43987;DHT22;29650;47.378;8.300;2023-07-08T09:29:46;22.50;99.90
43987;DHT22;29650;47.378;8.300;2023-07-08T09:32:17;22.60;99.90
43987;DHT22;29650;47.378;8.300;2023-07-08T09:34:46;22.80;99.90
43987;DHT22;29650;47.378;8.300;2023-07-08T09:37:25;23.00;99.90
43987;DHT22;29650;47.378;8.300;2023-07-08T09:39:53;21.40;99.90
43987;DHT22;29650;47.378;8.300;2023-07-08T09:42:22;23.10;99.90
43987;DHT22;29650;47.378;8.300;2023-07-08T09:44:55;22.90;99.90
43987;DHT22;29650;47.378;8.300;2023-07-08T09:47:26;23.30;99.90
43987;DHT22;29650;47.378;8.300;2023-07-08T09:49:57;23.40;99.90
43987;DHT22;29650;47.378;8.300;2023-07-08T09:52:25;23.40;99.30
43987;DHT22;29650;47.378;8.300;2023-07-08T09:54:52;23.30;96.30
43987;DHT22;29650;47.378;8.300;2023-07-08T09:57:26;23.10;96.40
43987;DHT22;29650;47.378;8.300;2023-07-08T09:59:57;23.00;98.90
43987;DHT22;29650;47.378;8.300;2023-07-08T10:02:33;22.90;98.00
43987;DHT22;29650;47.378;8.300;2023-07-08T10:05:13;22.50;99.90
43987;DHT22;29650;47.378;8.300;2023-07-08T10:07:41;22.90;99.90
43987;DHT22;29650;47.378;8.300;2023-07-08T10:10:12;22.40;99.90
43987;DHT22;29650;47.378;8.300;2023-07-08T10:12:41;22.00;99.90
43987;DHT22;29650;47.378;8.300;2023-07-08T10:15:18;22.30;99.90
43987;DHT22;29650;47.378;8.300;2023-07-08T10:17:48;22.50;99.90
43987;DHT22;29650;47.378;8.300;2023-07-08T10:20:15;22.40;99.90
43987;DHT22;29650;47.378;8.300;2023-07-08T10:22:47;22.50;99.90
43987;DHT22;29650;47.378;8.300;2023-07-08T10:25:26;22.70;99.90
43987;DHT22;29650;47.378;8.300;2023-07-08T10:28:01;22.80;99.90
43987;DHT22;29650;47.378;8.300;2023-07-08T10:30:32;22.80;99.90
43987;DHT22;29650;47.378;8.300;2023-07-08T10:33:33;22.90;99.90
43987;DHT22;29650;47.378;8.300;2023-07-08T10:36:19;22.70;99.90
43987;DHT22;29650;47.378;8.300;2023-07-08T10:38:59;22.50;99.90
43987;DHT22;29650;47.378;8.300;2023-07-08T10:41:37;22.70;99.90
43987;DHT22;29650;47.378;8.300;2023-07-08T10:44:15;22.80;99.90
43987;DHT22;29650;47.378;8.300;2023-07-08T10:46:52;23.00;99.90
43987;DHT22;29650;47.378;8.300;2023-07-08T10:49:28;23.20;99.90
43987;DHT22;29650;47.378;8.300;2023-07-08T10:52:07;22.90;99.90
43987;DHT22;29650;47.378;8.300;2023-07-08T10:55:02;22.80;99.90
43987;DHT22;29650;47.378;8.300;2023-07-08T10:57:55;22.80;99.90
43987;DHT22;29650;47.378;8.300;2023-07-08T11:00:32;23.10;99.90
43987;DHT22;29650;47.378;8.300;2023-07-08T11:06:20;22.80;99.90
43987;DHT22;29650;47.378;8.300;2023-07-08T11:08:53;23.00;99.90
43987;DHT22;29650;47.378;8.300;2023-07-08T11:11:30;22.90;99.90
43987;DHT22;29650;47.378;8.300;2023-07-08T11:14:04;23.00;99.90
43987;DHT22;29650;47.378;8.300;2023-07-08T11:16:35;23.10;99.90
43987;DHT22;29650;47.378;8.300;2023-07-08T11:19:06;23.00;99.90
43987;DHT22;29650;47.378;8.300;2023-07-08T11:21:41;23.00;99.90
43987;DHT22;29650;47.378;8.300;2023-07-08T11:24:15;23.20;99.90
43987;DHT22;29650;47.378;8.300;2023-07-08T11:26:47;23.30;99.90
43987;DHT22;29650;47.378;8.300;2023-07-08T11:29:20;23.20;99.90
43987;DHT22;29650;47.378;8.300;2023-07-08T11:31:47;23.30;99.90
43987;DHT22;29650;47.378;8.300;2023-07-08T11:34:17;23.10;99.90
43987;DHT22;29650;47.378;8.300;2023-07-08T11:36:46;23.30;99.90
43987;DHT22;29650;47.378;8.300;2023-07-08T11:39:27;23.30;99.90
43987;DHT22;29650;47.378;8.300;2023-07-08T11:42:06;23.40;99.90
43987;DHT22;29650;47.378;8.300;2023-07-08T11:44:41;23.40;99.90
43987;DHT22;29650;47.378;8.300;2023-07-08T11:47:15;23.30;99.90
43987;DHT22;29650;47.378;8.300;2023-07-08T11:49:43;23.50;99.90
43987;DHT22;29650;47.378;8.300;2023-07-08T11:52:14;23.70;99.90
43987;DHT22;29650;47.378;8.300;2023-07-08T11:54:45;23.40;99.90
43987;DHT22;29650;47.378;8.300;2023-07-08T11:57:17;23.50;99.90
43987;DHT22;29650;47.378;8.300;2023-07-08T11:59:46;23.70;99.90
43987;DHT22;29650;47.378;8.300;2023-07-08T12:02:13;23.80;99.90
43987;DHT22;29650;47.378;8.300;2023-07-08T12:04:52;24.00;98.80
43987;DHT22;29650;47.378;8.300;2023-07-08T12:07:31;24.10;98.60
43987;DHT22;29650;47.378;8.300;2023-07-08T12:10:03;24.20;96.60
43987;DHT22;29650;47.378;8.300;2023-07-08T12:12:34;24.40;96.90
43987;DHT22;29650;47.378;8.300;2023-07-08T12:15:11;24.30;95.00
43987;DHT22;29650;47.378;8.300;2023-07-08T12:17:40;24.30;95.30
43987;DHT22;29650;47.378;8.300;2023-07-08T12:20:17;24.20;95.40
43987;DHT22;29650;47.378;8.300;2023-07-08T12:22:47;24.40;96.60
43987;DHT22;29650;47.378;8.300;2023-07-08T12:25:16;24.50;95.20
43987;DHT22;29650;47.378;8.300;2023-07-08T12:27:44;24.40;95.40
43987;DHT22;29650;47.378;8.300;2023-07-08T12:30:13;24.20;95.90
43987;DHT22;29650;47.378;8.300;2023-07-08T12:32:41;24.70;96.10
43987;DHT22;29650;47.378;8.300;2023-07-08T12:35:17;24.80;93.30
43987;DHT22;29650;47.378;8.300;2023-07-08T12:37:47;22.90;93.50
43987;DHT22;29650;47.378;8.300;2023-07-08T12:40:15;25.40;92.30
43987;DHT22;29650;47.378;8.300;2023-07-08T12:42:42;25.50;90.40
43987;DHT22;29650;47.378;8.300;2023-07-08T12:45:14;25.80;85.90
43987;DHT22;29650;47.378;8.300;2023-07-08T12:47:42;25.90;85.00
43987;DHT22;29650;47.378;8.300;2023-07-08T12:50:10;25.70;81.40
43987;DHT22;29650;47.378;8.300;2023-07-08T12:52:37;25.90;80.30
43987;DHT22;29650;47.378;8.300;2023-07-08T12:55:08;26.10;79.40
43987;DHT22;29650;47.378;8.300;2023-07-08T12:57:39;26.20;72.40
43987;DHT22;29650;47.378;8.300;2023-07-08T13:00:12;26.00;73.50
43987;DHT22;29650;47.378;8.300;2023-07-08T13:02:44;26.20;72.30
43987;DHT22;29650;47.378;8.300;2023-07-08T13:05:12;26.40;66.90
43987;DHT22;29650;47.378;8.300;2023-07-08T13:07:41;25.40;65.10
43987;DHT22;29650;47.378;8.300;2023-07-08T13:10:18;25.80;66.20
43987;DHT22;29650;47.378;8.300;2023-07-08T13:12:48;26.70;65.00
43987;DHT22;29650;47.378;8.300;2023-07-08T13:15:21;26.30;62.20
43987;DHT22;29650;47.378;8.300;2023-07-08T13:17:49;26.20;61.50
43987;DHT22;29650;47.378;8.300;2023-07-08T13:20:17;26.70;60.00
43987;DHT22;29650;47.378;8.300;2023-07-08T13:22:50;27.00;53.30
43987;DHT22;29650;47.378;8.300;2023-07-08T13:25:27;27.10;52.40
43987;DHT22;29650;47.378;8.300;2023-07-08T13:27:57;27.10;53.10
43987;DHT22;29650;47.378;8.300;2023-07-08T13:30:28;27.10;54.80
43987;DHT22;29650;47.378;8.300;2023-07-08T13:32:58;27.20;52.40
43987;DHT22;29650;47.378;8.300;2023-07-08T13:35:28;26.80;52.60
43987;DHT22;29650;47.378;8.300;2023-07-08T13:38:01;25.70;51.20
43987;DHT22;29650;47.378;8.300;2023-07-08T13:40:37;26.90;51.10
43987;DHT22;29650;47.378;8.300;2023-07-08T13:43:11;27.50;50.30
43987;DHT22;29650;47.378;8.300;2023-07-08T13:45:43;27.40;49.90
43987;DHT22;29650;47.378;8.300;2023-07-08T13:48:28;27.30;51.60
43987;DHT22;29650;47.378;8.300;2023-07-08T13:50:58;26.20;50.90
43987;DHT22;29650;47.378;8.300;2023-07-08T13:53:32;28.10;51.70
43987;DHT22;29650;47.378;8.300;2023-07-08T13:56:07;27.90;50.00
43987;DHT22;29650;47.378;8.300;2023-07-08T13:58:43;28.00;50.20
43987;DHT22;29650;47.378;8.300;2023-07-08T14:01:16;27.90;48.80
43987;DHT22;29650;47.378;8.300;2023-07-08T14:03:44;28.00;49.50
43987;DHT22;29650;47.378;8.300;2023-07-08T14:06:13;28.00;50.10
43987;DHT22;29650;47.378;8.300;2023-07-08T14:08:40;28.30;48.50
43987;DHT22;29650;47.378;8.300;2023-07-08T14:11:09;28.20;48.00
43987;DHT22;29650;47.378;8.300;2023-07-08T14:13:40;28.00;45.70
43987;DHT22;29650;47.378;8.300;2023-07-08T14:16:22;28.60;46.70
43987;DHT22;29650;47.378;8.300;2023-07-08T14:19:02;29.00;45.70
43987;DHT22;29650;47.378;8.300;2023-07-08T14:21:30;28.80;42.60
43987;DHT22;29650;47.378;8.300;2023-07-08T14:24:00;29.00;44.00
43987;DHT22;29650;47.378;8.300;2023-07-08T14:26:31;28.70;42.20
43987;DHT22;29650;47.378;8.300;2023-07-08T14:29:02;27.10;40.80
43987;DHT22;29650;47.378;8.300;2023-07-08T14:31:35;28.70;42.40
43987;DHT22;29650;47.378;8.300;2023-07-08T14:34:05;28.80;42.60
43987;DHT22;29650;47.378;8.300;2023-07-08T14:36:43;28.90;41.20
43987;DHT22;29650;47.378;8.300;2023-07-08T14:39:15;29.20;40.00
43987;DHT22;29650;47.378;8.300;2023-07-08T14:41:49;29.40;37.80
43987;DHT22;29650;47.378;8.300;2023-07-08T14:44:22;32.80;39.50
43987;DHT22;29650;47.378;8.300;2023-07-08T14:46:51;29.10;34.40
43987;DHT22;29650;47.378;8.300;2023-07-08T14:49:22;29.40;32.80
43987;DHT22;29650;47.378;8.300;2023-07-08T14:51:52;29.50;34.50
43987;DHT22;29650;47.378;8.300;2023-07-08T14:54:22;30.00;33.00
43987;DHT22;29650;47.378;8.300;2023-07-08T14:56:52;30.40;31.60
43987;DHT22;29650;47.378;8.300;2023-07-08T14:59:25;30.40;32.20
43987;DHT22;29650;47.378;8.300;2023-07-08T15:01:58;30.20;29.60
43987;DHT22;29650;47.378;8.300;2023-07-08T15:04:31;30.50;27.60
43987;DHT22;29650;47.378;8.300;2023-07-08T15:07:07;30.30;25.10
43987;DHT22;29650;47.378;8.300;2023-07-08T15:09:35;30.50;24.70
43987;DHT22;29650;47.378;8.300;2023-07-08T15:12:09;31.00;24.90
43987;DHT22;29650;47.378;8.300;2023-07-08T15:14:36;30.90;24.50
43987;DHT22;29650;47.378;8.300;2023-07-08T15:17:10;31.00;23.40
43987;DHT22;29650;47.378;8.300;2023-07-08T15:19:41;30.90;22.90
43987;DHT22;29650;47.378;8.300;2023-07-08T15:22:14;30.70;23.20
43987;DHT22;29650;47.378;8.300;2023-07-08T15:24:41;30.90;24.00
43987;DHT22;29650;47.378;8.300;2023-07-08T15:27:11;30.80;23.40
43987;DHT22;29650;47.378;8.300;2023-07-08T15:29:40;31.20;21.90
43987;DHT22;29650;47.378;8.300;2023-07-08T15:32:11;30.50;21.90
43987;DHT22;29650;47.378;8.300;2023-07-08T15:34:39;30.60;24.40
43987;DHT22;29650;47.378;8.300;2023-07-08T15:37:08;30.40;24.20
43987;DHT22;29650;47.378;8.300;2023-07-08T15:39:35;29.60;23.70
43987;DHT22;29650;47.378;8.300;2023-07-08T15:42:02;30.00;24.10
43987;DHT22;29650;47.378;8.300;2023-07-08T15:44:39;30.50;25.00
43987;DHT22;29650;47.378;8.300;2023-07-08T15:47:10;30.20;25.00
43987;DHT22;29650;47.378;8.300;2023-07-08T15:49:43;30.30;25.20
43987;DHT22;29650;47.378;8.300;2023-07-08T15:52:13;30.60;25.10
43987;DHT22;29650;47.378;8.300;2023-07-08T15:54:47;30.80;24.90
43987;DHT22;29650;47.378;8.300;2023-07-08T15:57:18;30.80;25.70
43987;DHT22;29650;47.378;8.300;2023-07-08T15:59:52;30.70;25.10
43987;DHT22;29650;47.378;8.300;2023-07-08T16:02:27;30.90;24.00